sensor_id;sensor_type;location;lat;lon;timestamp;pressure;altitude;pressure_sealevel;temperature;humidity
21828;BME280;11076;47.942;11.804;2023-02-19T00:04:30;94766.03;;;9.45;79.45
21828;BME280;11076;47.942;11.804;2023-02-19T00:09:32;94760.09;;;9.43;78.83
21828;BME280;11076;47.942;11.804;2023-02-19T00:14:35;94758.44;;;9.42;79.27
21828;BME280;11076;47.942;11.804;2023-02-19T00:19:37;94748.19;;;9.39;79.56
21828;BME280;11076;47.942;11.804;2023-02-19T00:24:40;94747.13;;;9.33;78.92
21828;BME280;11076;47.942;11.804;2023-02-19T00:29:42;94750.19;;;9.30;79.06
21828;BME280;11076;47.942;11.804;2023-02-19T00:34:44;94747.72;;;9.29;79.77
21828;BME280;11076;47.942;11.804;2023-02-19T00:39:47;94730.50;;;9.31;79.18
21828;BME280;11076;47.942;11.804;2023-02-19T00:44:49;94741.19;;;9.31;79.66
21828;BME280;11076;47.942;11.804;2023-02-19T00:49:54;94734.19;;;9.30;79.82
21828;BME280;11076;47.942;11.804;2023-02-19T00:54:56;94733.56;;;9.28;79.46
21828;BME280;11076;47.942;11.804;2023-02-19T00:59:59;94727.63;;;9.33;78.47
21828;BME280;11076;47.942;11.804;2023-02-19T01:05:02;94717.78;;;9.33;78.83
21828;BME280;11076;47.942;11.804;2023-02-19T01:10:05;94717.78;;;9.33;78.59
21828;BME280;11076;47.942;11.804;2023-02-19T01:15:07;94706.69;;;9.36;78.38
21828;BME280;11076;47.942;11.804;2023-02-19T01:20:10;94701.53;;;9.35;78.15
21828;BME280;11076;47.942;11.804;2023-02-19T01:25:12;94704.25;;;9.42;77.86
21828;BME280;11076;47.942;11.804;2023-02-19T01:30:15;94692.13;;;9.39;78.88
21828;BME280;11076;47.942;11.804;2023-02-19T01:35:19;94677.34;;;9.36;78.41
21828;BME280;11076;47.942;11.804;2023-02-19T01:40:21;94671.78;;;9.45;78.56
21828;BME280;11076;47.942;11.804;2023-02-19T01:45:25;94680.41;;;9.47;78.42
21828;BME280;11076;47.942;11.804;2023-02-19T01:50:31;94670.16;;;9.44;78.82
21828;BME280;11076;47.942;11.804;2023-02-19T01:55:36;94660.72;;;9.48;78.42
21828;BME280;11076;47.942;11.804;2023-02-19T02:00:38;94663.78;;;9.45;78.80
21828;BME280;11076;47.942;11.804;2023-02-19T02:05:47;94667.69;;;9.42;78.81
21828;BME280;11076;47.942;11.804;2023-02-19T02:10:52;94652.31;;;9.44;78.77
21828;BME280;11076;47.942;11.804;2023-02-19T02:32:04;94648.41;;;9.33;79.24
21828;BME280;11076;47.942;11.804;2023-02-19T02:37:11;94635.69;;;9.35;80.15
21828;BME280;11076;47.942;11.804;2023-02-19T02:42:14;94632.38;;;9.27;80.83
21828;BME280;11076;47.942;11.804;2023-02-19T02:47:53;94635.69;;;9.15;81.18
21828;BME280;11076;47.942;11.804;2023-02-19T02:53:01;94627.88;;;9.14;81.82
21828;BME280;11076;47.942;11.804;2023-02-19T02:58:23;94607.16;;;9.09;81.25
21828;BME280;11076;47.942;11.804;2023-02-19T03:03:30;94600.56;;;9.12;81.85
21828;BME280;11076;47.942;11.804;2023-02-19T03:08:37;94602.81;;;9.15;81.93
21828;BME280;11076;47.942;11.804;2023-02-19T03:13:42;94591.34;;;9.14;82.03
21828;BME280;11076;47.942;11.804;2023-02-19T03:19:04;94588.47;;;9.16;81.65
21828;BME280;11076;47.942;11.804;2023-02-19T03:24:30;94582.94;;;9.18;81.71
21828;BME280;11076;47.942;11.804;2023-02-19T03:29:53;94586.41;;;9.18;82.21
21828;BME280;11076;47.942;11.804;2023-02-19T03:35:02;94595.66;;;9.15;82.16
21828;BME280;11076;47.942;11.804;2023-02-19T03:40:08;94588.47;;;9.09;83.08
21828;BME280;11076;47.942;11.804;2023-02-19T03:50:28;94625.34;;;8.79;88.79
21828;BME280;11076;47.942;11.804;2023-02-19T04:06:12;94629.25;;;8.22;99.42
21828;BME280;11076;47.942;11.804;2023-02-19T04:11:17;94638.56;;;8.04;100.00
21828;BME280;11076;47.942;11.804;2023-02-19T04:16:21;94638.75;;;7.96;100.00
21828;BME280;11076;47.942;11.804;2023-02-19T04:21:27;94642.38;;;7.88;100.00
21828;BME280;11076;47.942;11.804;2023-02-19T04:26:32;94640.84;;;7.72;100.00
21828;BME280;11076;47.942;11.804;2023-02-19T04:31:35;94621.94;;;7.61;100.00
21828;BME280;11076;47.942;11.804;2023-02-19T04:36:39;94623.53;;;7.55;100.00
21828;BME280;11076;47.942;11.804;2023-02-19T04:41:42;94623.69;;;7.47;100.00
21828;BME280;11076;47.942;11.804;2023-02-19T04:46:44;94598.41;;;7.36;100.00
21828;BME280;11076;47.942;11.804;2023-02-19T04:51:46;94588.97;;;7.27;100.00
21828;BME280;11076;47.942;11.804;2023-02-19T04:56:49;94601.38;;;7.20;100.00
21828;BME280;11076;47.942;11.804;2023-02-19T05:01:51;94619.94;;;7.13;100.00
21828;BME280;11076;47.942;11.804;2023-02-19T05:06:54;94607.47;;;7.13;100.00
21828;BME280;11076;47.942;11.804;2023-02-19T05:11:56;94626.53;;;7.17;100.00
21828;BME280;11076;47.942;11.804;2023-02-19T05:16:58;94642.84;;;7.14;100.00
21828;BME280;11076;47.942;11.804;2023-02-19T05:22:01;94624.00;;;7.09;100.00
21828;BME280;11076;47.942;11.804;2023-02-19T05:27:03;94633.81;;;7.08;100.00
21828;BME280;11076;47.942;11.804;2023-02-19T05:32:05;94624.38;;;7.06;100.00
21828;BME280;11076;47.942;11.804;2023-02-19T05:37:08;94637.66;;;7.06;100.00
21828;BME280;11076;47.942;11.804;2023-02-19T05:42:12;94650.13;;;7.05;100.00
21828;BME280;11076;47.942;11.804;2023-02-19T05:47:15;94635.84;;;7.06;100.00
21828;BME280;11076;47.942;11.804;2023-02-19T05:52:17;94644.81;;;7.05;100.00
21828;BME280;11076;47.942;11.804;2023-02-19T05:57:19;94654.00;;;7.03;100.00
21828;BME280;11076;47.942;11.804;2023-02-19T06:02:22;94661.97;;;7.03;100.00
21828;BME280;11076;47.942;11.804;2023-02-19T06:07:25;94673.47;;;7.10;100.00
21828;BME280;11076;47.942;11.804;2023-02-19T06:12:27;94674.75;;;7.14;100.00
21828;BME280;11076;47.942;11.804;2023-02-19T06:17:29;94671.31;;;7.20;100.00
21828;BME280;11076;47.942;11.804;2023-02-19T06:22:32;94673.78;;;7.22;100.00
21828;BME280;11076;47.942;11.804;2023-02-19T06:27:35;94662.97;;;7.23;100.00
21828;BME280;11076;47.942;11.804;2023-02-19T06:32:37;94669.81;;;7.32;100.00
21828;BME280;11076;47.942;11.804;2023-02-19T06:37:40;94687.03;;;7.36;100.00
21828;BME280;11076;47.942;11.804;2023-02-19T06:42:42;94694.25;;;7.43;100.00
21828;BME280;11076;47.942;11.804;2023-02-19T06:47:45;94718.38;;;7.41;100.00
21828;BME280;11076;47.942;11.804;2023-02-19T06:52:47;94735.22;;;7.27;100.00
21828;BME280;11076;47.942;11.804;2023-02-19T06:57:49;94733.00;;;7.09;100.00
21828;BME280;11076;47.942;11.804;2023-02-19T07:02:52;94740.25;;;7.00;100.00
21828;BME280;11076;47.942;11.804;2023-02-19T07:07:57;94731.09;;;7.03;100.00
21828;BME280;11076;47.942;11.804;2023-02-19T07:13:00;94738.50;;;7.07;100.00
21828;BME280;11076;47.942;11.804;2023-02-19T07:18:02;94757.75;;;7.09;100.00
21828;BME280;11076;47.942;11.804;2023-02-19T07:23:06;94761.56;;;7.22;100.00
21828;BME280;11076;47.942;11.804;2023-02-19T07:28:08;94756.88;;;7.24;100.00
21828;BME280;11076;47.942;11.804;2023-02-19T07:33:11;94755.25;;;7.44;100.00
21828;BME280;11076;47.942;11.804;2023-02-19T07:38:17;94749.72;;;7.46;100.00
21828;BME280;11076;47.942;11.804;2023-02-19T07:43:20;94762.69;;;7.55;100.00
21828;BME280;11076;47.942;11.804;2023-02-19T07:48:23;94764.53;;;7.76;100.00
21828;BME280;11076;47.942;11.804;2023-02-19T07:53:26;94767.97;;;7.99;100.00
21828;BME280;11076;47.942;11.804;2023-02-19T07:58:30;94776.38;;;8.24;100.00
21828;BME280;11076;47.942;11.804;2023-02-19T08:03:32;94771.06;;;8.30;99.24
21828;BME280;11076;47.942;11.804;2023-02-19T08:08:35;94789.28;;;8.55;97.42
21828;BME280;11076;47.942;11.804;2023-02-19T08:13:37;94784.38;;;9.00;93.81
21828;BME280;11076;47.942;11.804;2023-02-19T08:18:40;94797.59;;;9.22;93.15
21828;BME280;11076;47.942;11.804;2023-02-19T08:23:43;94795.84;;;9.01;92.77
21828;BME280;11076;47.942;11.804;2023-02-19T08:28:47;94796.28;;;9.04;93.38
21828;BME280;11076;47.942;11.804;2023-02-19T08:33:49;94815.78;;;9.05;93.09
21828;BME280;11076;47.942;11.804;2023-02-19T08:38:52;94799.78;;;9.05;93.86
21828;BME280;11076;47.942;11.804;2023-02-19T08:43:54;94808.69;;;9.25;91.28
21828;BME280;11076;47.942;11.804;2023-02-19T08:48:56;94814.53;;;9.62;88.76
21828;BME280;11076;47.942;11.804;2023-02-19T08:54:01;94803.25;;;9.73;89.31
21828;BME280;11076;47.942;11.804;2023-02-19T08:59:03;94807.31;;;9.56;88.65
21828;BME280;11076;47.942;11.804;2023-02-19T09:04:07;94794.59;;;9.58;88.30
21828;BME280;11076;47.942;11.804;2023-02-19T09:09:09;94812.63;;;9.43;88.33
21828;BME280;11076;47.942;11.804;2023-02-19T09:14:11;94815.50;;;9.41;88.16
21828;BME280;11076;47.942;11.804;2023-02-19T09:19:14;94810.94;;;9.35;89.36
21828;BME280;11076;47.942;11.804;2023-02-19T09:24:16;94814.47;;;9.35;89.93
21828;BME280;11076;47.942;11.804;2023-02-19T09:29:20;94816.00;;;9.85;87.86
21828;BME280;11076;47.942;11.804;2023-02-19T09:34:24;94813.13;;;10.20;87.19
21828;BME280;11076;47.942;11.804;2023-02-19T09:39:26;94817.66;;;9.99;85.83
21828;BME280;11076;47.942;11.804;2023-02-19T09:44:35;94849.16;;;9.42;91.21
21828;BME280;11076;47.942;11.804;2023-02-19T09:49:40;94851.88;;;8.38;100.00
21828;BME280;11076;47.942;11.804;2023-02-19T09:54:51;94861.34;;;7.75;100.00
21828;BME280;11076;47.942;11.804;2023-02-19T10:05:13;94868.72;;;7.95;100.00
21828;BME280;11076;47.942;11.804;2023-02-19T10:10:35;94871.19;;;7.75;100.00
21828;BME280;11076;47.942;11.804;2023-02-19T10:15:45;94871.16;;;7.90;100.00
21828;BME280;11076;47.942;11.804;2023-02-19T10:20:49;94874.84;;;7.95;100.00
21828;BME280;11076;47.942;11.804;2023-02-19T10:25:54;94902.44;;;8.09;100.00
21828;BME280;11076;47.942;11.804;2023-02-19T10:31:01;94899.78;;;8.09;100.00
21828;BME280;11076;47.942;11.804;2023-02-19T10:36:05;94911.13;;;8.18;100.00
21828;BME280;11076;47.942;11.804;2023-02-19T10:41:13;94919.25;;;8.10;100.00
21828;BME280;11076;47.942;11.804;2023-02-19T10:51:39;94916.66;;;8.94;100.00
21828;BME280;11076;47.942;11.804;2023-02-19T10:56:42;94906.91;;;9.15;100.00
21828;BME280;11076;47.942;11.804;2023-02-19T11:02:02;94910.03;;;9.19;99.45
21828;BME280;11076;47.942;11.804;2023-02-19T11:07:16;94917.59;;;9.15;99.50
21828;BME280;11076;47.942;11.804;2023-02-19T11:12:27;94915.09;;;9.07;95.27
21828;BME280;11076;47.942;11.804;2023-02-19T11:17:30;94915.66;;;8.95;97.45
21828;BME280;11076;47.942;11.804;2023-02-19T11:22:38;94918.06;;;8.90;96.48
21828;BME280;11076;47.942;11.804;2023-02-19T11:32:57;94913.59;;;8.20;97.87
21828;BME280;11076;47.942;11.804;2023-02-19T11:38:16;94909.91;;;7.99;98.80
21828;BME280;11076;47.942;11.804;2023-02-19T11:48:40;94913.34;;;7.93;99.32
21828;BME280;11076;47.942;11.804;2023-02-19T11:53:53;94906.81;;;8.17;97.71
21828;BME280;11076;47.942;11.804;2023-02-19T11:59:04;94908.25;;;8.20;95.46
21828;BME280;11076;47.942;11.804;2023-02-19T12:30:31;94897.50;;;8.78;95.83
21828;BME280;11076;47.942;11.804;2023-02-19T12:41:18;94899.16;;;9.20;94.90
21828;BME280;11076;47.942;11.804;2023-02-19T12:46:35;94902.63;;;9.14;94.18
21828;BME280;11076;47.942;11.804;2023-02-19T12:51:52;94908.91;;;9.00;95.15
21828;BME280;11076;47.942;11.804;2023-02-19T13:12:46;94925.78;;;8.50;97.29
21828;BME280;11076;47.942;11.804;2023-02-19T13:17:51;94918.00;;;9.12;94.35
21828;BME280;11076;47.942;11.804;2023-02-19T13:33:52;94917.94;;;9.95;88.72
21828;BME280;11076;47.942;11.804;2023-02-19T13:39:03;94924.63;;;10.72;87.88
21828;BME280;11076;47.942;11.804;2023-02-19T13:44:15;94922.88;;;10.11;82.85
21828;BME280;11076;47.942;11.804;2023-02-19T13:49:23;94929.06;;;9.50;79.07
21828;BME280;11076;47.942;11.804;2023-02-19T13:54:33;94929.38;;;8.92;83.86
21828;BME280;11076;47.942;11.804;2023-02-19T13:59:41;94935.28;;;8.60;85.29
21828;BME280;11076;47.942;11.804;2023-02-19T14:09:53;94955.34;;;8.55;85.28
21828;BME280;11076;47.942;11.804;2023-02-19T14:14:56;94945.06;;;9.09;84.17
21828;BME280;11076;47.942;11.804;2023-02-19T14:19:59;94937.41;;;8.99;84.79
21828;BME280;11076;47.942;11.804;2023-02-19T14:25:06;94949.28;;;8.96;83.51
21828;BME280;11076;47.942;11.804;2023-02-19T14:30:11;94971.09;;;8.79;82.76
21828;BME280;11076;47.942;11.804;2023-02-19T14:35:22;94944.91;;;8.61;83.88
21828;BME280;11076;47.942;11.804;2023-02-19T14:40:31;94962.94;;;8.37;83.44
21828;BME280;11076;47.942;11.804;2023-02-19T14:45:40;94978.47;;;8.33;83.97
21828;BME280;11076;47.942;11.804;2023-02-19T14:50:46;94969.34;;;8.21;84.96
21828;BME280;11076;47.942;11.804;2023-02-19T14:55:51;94955.22;;;8.42;84.30
21828;BME280;11076;47.942;11.804;2023-02-19T15:00:55;94974.34;;;8.31;82.35
21828;BME280;11076;47.942;11.804;2023-02-19T15:06:02;94968.06;;;8.17;83.35
21828;BME280;11076;47.942;11.804;2023-02-19T15:11:17;94964.25;;;8.05;80.86
21828;BME280;11076;47.942;11.804;2023-02-19T15:16:22;94979.28;;;7.91;81.42
21828;BME280;11076;47.942;11.804;2023-02-19T15:21:30;94975.84;;;7.97;80.57
21828;BME280;11076;47.942;11.804;2023-02-19T15:26:38;94974.34;;;8.09;80.94
21828;BME280;11076;47.942;11.804;2023-02-19T15:31:56;94975.91;;;8.04;79.67
21828;BME280;11076;47.942;11.804;2023-02-19T15:37:01;94992.75;;;7.89;80.93
21828;BME280;11076;47.942;11.804;2023-02-19T15:42:07;94999.66;;;7.84;81.16
21828;BME280;11076;47.942;11.804;2023-02-19T15:47:26;95017.28;;;7.85;81.38
21828;BME280;11076;47.942;11.804;2023-02-19T15:57:41;95022.44;;;7.71;79.83
21828;BME280;11076;47.942;11.804;2023-02-19T16:02:45;95021.16;;;7.67;80.58
21828;BME280;11076;47.942;11.804;2023-02-19T16:08:07;95030.91;;;7.60;81.15
21828;BME280;11076;47.942;11.804;2023-02-19T16:13:10;95016.88;;;7.51;82.53
21828;BME280;11076;47.942;11.804;2023-02-19T16:18:13;95015.31;;;7.42;82.47
21828;BME280;11076;47.942;11.804;2023-02-19T16:23:17;95015.84;;;7.37;82.91
21828;BME280;11076;47.942;11.804;2023-02-19T16:28:24;95024.31;;;7.26;83.46
21828;BME280;11076;47.942;11.804;2023-02-19T16:33:36;95030.72;;;7.17;83.95
21828;BME280;11076;47.942;11.804;2023-02-19T16:38:39;95034.09;;;7.11;83.37
21828;BME280;11076;47.942;11.804;2023-02-19T16:43:42;95039.78;;;7.08;83.87
21828;BME280;11076;47.942;11.804;2023-02-19T16:48:44;95051.06;;;7.10;82.47
21828;BME280;11076;47.942;11.804;2023-02-19T16:53:47;95063.69;;;7.08;83.11
21828;BME280;11076;47.942;11.804;2023-02-19T16:58:49;95061.75;;;7.02;84.40
21828;BME280;11076;47.942;11.804;2023-02-19T17:03:56;95075.06;;;7.02;84.45
21828;BME280;11076;47.942;11.804;2023-02-19T17:09:00;95080.75;;;6.99;85.52
21828;BME280;11076;47.942;11.804;2023-02-19T17:14:02;95091.25;;;6.92;86.88
21828;BME280;11076;47.942;11.804;2023-02-19T17:19:14;95111.06;;;6.89;87.12
21828;BME280;11076;47.942;11.804;2023-02-19T17:24:16;95110.06;;;6.90;87.36
21828;BME280;11076;47.942;11.804;2023-02-19T17:29:19;95116.03;;;6.92;86.81
21828;BME280;11076;47.942;11.804;2023-02-19T17:34:22;95132.63;;;6.94;86.30
21828;BME280;11076;47.942;11.804;2023-02-19T17:39:24;95135.47;;;6.93;86.47
21828;BME280;11076;47.942;11.804;2023-02-19T17:44:27;95143.13;;;6.88;86.93
21828;BME280;11076;47.942;11.804;2023-02-19T17:49:29;95124.69;;;6.86;87.13
21828;BME280;11076;47.942;11.804;2023-02-19T17:54:32;95135.97;;;6.88;87.32
21828;BME280;11076;47.942;11.804;2023-02-19T17:59:35;95146.81;;;6.87;87.30
21828;BME280;11076;47.942;11.804;2023-02-19T18:04:37;95152.47;;;6.84;86.51
21828;BME280;11076;47.942;11.804;2023-02-19T18:09:42;95144.66;;;6.82;86.30
21828;BME280;11076;47.942;11.804;2023-02-19T18:14:44;95153.53;;;6.74;86.82
21828;BME280;11076;47.942;11.804;2023-02-19T18:19:47;95168.63;;;6.74;86.96
21828;BME280;11076;47.942;11.804;2023-02-19T18:24:53;95179.63;;;6.71;87.18
21828;BME280;11076;47.942;11.804;2023-02-19T18:29:55;95186.47;;;6.65;87.87
21828;BME280;11076;47.942;11.804;2023-02-19T18:34:58;95210.44;;;6.57;88.68
21828;BME280;11076;47.942;11.804;2023-02-19T18:40:04;95208.16;;;6.46;89.63
21828;BME280;11076;47.942;11.804;2023-02-19T18:45:07;95209.66;;;6.40;90.74
21828;BME280;11076;47.942;11.804;2023-02-19T18:50:09;95216.97;;;6.38;90.65
21828;BME280;11076;47.942;11.804;2023-02-19T18:55:12;95227.59;;;6.38;91.65
21828;BME280;11076;47.942;11.804;2023-02-19T19:00:22;95221.34;;;6.31;91.23
21828;BME280;11076;47.942;11.804;2023-02-19T19:05:26;95234.13;;;6.27;91.85
21828;BME280;11076;47.942;11.804;2023-02-19T19:10:29;95237.97;;;6.25;92.50
21828;BME280;11076;47.942;11.804;2023-02-19T19:15:32;95244.09;;;6.25;92.25
21828;BME280;11076;47.942;11.804;2023-02-19T19:20:34;95245.25;;;6.23;92.51
21828;BME280;11076;47.942;11.804;2023-02-19T19:25:36;95249.75;;;6.22;93.03
21828;BME280;11076;47.942;11.804;2023-02-19T19:30:40;95252.41;;;6.22;93.42
21828;BME280;11076;47.942;11.804;2023-02-19T19:35:43;95245.59;;;6.20;93.40
21828;BME280;11076;47.942;11.804;2023-02-19T19:40:45;95257.22;;;6.18;94.40
21828;BME280;11076;47.942;11.804;2023-02-19T19:45:47;95253.25;;;6.14;94.70
21828;BME280;11076;47.942;11.804;2023-02-19T19:50:51;95247.13;;;6.14;95.06
21828;BME280;11076;47.942;11.804;2023-02-19T19:55:54;95254.91;;;6.15;95.22
21828;BME280;11076;47.942;11.804;2023-02-19T20:00:56;95250.44;;;6.08;94.87
21828;BME280;11076;47.942;11.804;2023-02-19T20:06:00;95252.94;;;6.09;94.98
21828;BME280;11076;47.942;11.804;2023-02-19T20:11:02;95246.63;;;6.10;95.47
21828;BME280;11076;47.942;11.804;2023-02-19T20:16:05;95239.50;;;6.11;94.75
21828;BME280;11076;47.942;11.804;2023-02-19T20:21:11;95247.13;;;6.14;95.19
21828;BME280;11076;47.942;11.804;2023-02-19T20:26:21;95258.56;;;6.14;94.50
21828;BME280;11076;47.942;11.804;2023-02-19T20:31:24;95257.06;;;6.12;94.15
21828;BME280;11076;47.942;11.804;2023-02-19T20:36:26;95257.91;;;6.12;93.68
21828;BME280;11076;47.942;11.804;2023-02-19T20:41:30;95265.53;;;6.15;92.82
21828;BME280;11076;47.942;11.804;2023-02-19T20:46:32;95267.84;;;6.18;92.66
21828;BME280;11076;47.942;11.804;2023-02-19T20:51:49;95271.34;;;6.19;92.19
21828;BME280;11076;47.942;11.804;2023-02-19T20:56:54;95265.38;;;6.17;92.04
21828;BME280;11076;47.942;11.804;2023-02-19T21:01:57;95265.38;;;6.17;92.09
21828;BME280;11076;47.942;11.804;2023-02-19T21:07:00;95269.00;;;6.16;92.44
21828;BME280;11076;47.942;11.804;2023-02-19T21:12:02;95275.34;;;6.15;92.22
21828;BME280;11076;47.942;11.804;2023-02-19T21:17:04;95289.59;;;6.14;92.59
21828;BME280;11076;47.942;11.804;2023-02-19T21:22:07;95283.63;;;6.12;93.26
21828;BME280;11076;47.942;11.804;2023-02-19T21:27:09;95282.47;;;6.06;93.77
21828;BME280;11076;47.942;11.804;2023-02-19T21:32:12;95303.41;;;6.01;94.08
21828;BME280;11076;47.942;11.804;2023-02-19T21:37:14;95287.47;;;5.93;95.21
21828;BME280;11076;47.942;11.804;2023-02-19T21:42:16;95287.47;;;5.93;95.23
21828;BME280;11076;47.942;11.804;2023-02-19T21:47:19;95273.53;;;5.91;96.08
21828;BME280;11076;47.942;11.804;2023-02-19T21:52:21;95270.19;;;5.89;95.79
21828;BME280;11076;47.942;11.804;2023-02-19T21:57:24;95267.53;;;5.81;97.05
21828;BME280;11076;47.942;11.804;2023-02-19T22:02:26;95271.72;;;5.83;97.16
21828;BME280;11076;47.942;11.804;2023-02-19T22:07:29;95270.38;;;5.79;97.94
21828;BME280;11076;47.942;11.804;2023-02-19T22:12:31;95265.41;;;5.76;97.48
21828;BME280;11076;47.942;11.804;2023-02-19T22:17:34;95263.41;;;5.78;98.28
21828;BME280;11076;47.942;11.804;2023-02-19T22:22:36;95266.22;;;5.76;98.52
21828;BME280;11076;47.942;11.804;2023-02-19T22:27:38;95269.38;;;5.72;98.92
21828;BME280;11076;47.942;11.804;2023-02-19T22:32:41;95279.19;;;5.71;99.84
21828;BME280;11076;47.942;11.804;2023-02-19T22:37:43;95280.50;;;5.67;99.79
21828;BME280;11076;47.942;11.804;2023-02-19T22:42:45;95287.63;;;5.67;100.00
21828;BME280;11076;47.942;11.804;2023-02-19T22:47:48;95283.81;;;5.69;100.00
21828;BME280;11076;47.942;11.804;2023-02-19T22:52:50;95292.25;;;5.73;100.00
21828;BME280;11076;47.942;11.804;2023-02-19T22:57:55;95293.94;;;5.74;100.00
21828;BME280;11076;47.942;11.804;2023-02-19T23:02:58;95289.13;;;5.77;99.91
21828;BME280;11076;47.942;11.804;2023-02-19T23:08:00;95288.78;;;5.81;99.69
21828;BME280;11076;47.942;11.804;2023-02-19T23:13:03;95303.06;;;5.80;98.92
21828;BME280;11076;47.942;11.804;2023-02-19T23:18:05;95299.22;;;5.82;99.11
21828;BME280;11076;47.942;11.804;2023-02-19T23:23:09;95300.72;;;5.85;98.46
21828;BME280;11076;47.942;11.804;2023-02-19T23:28:11;95300.72;;;5.85;97.78
21828;BME280;11076;47.942;11.804;2023-02-19T23:33:14;95312.00;;;5.87;97.46
21828;BME280;11076;47.942;11.804;2023-02-19T23:38:16;95314.84;;;5.85;97.99
21828;BME280;11076;47.942;11.804;2023-02-19T23:43:19;95313.00;;;5.86;98.11
21828;BME280;11076;47.942;11.804;2023-02-19T23:48:22;95295.09;;;5.88;97.70
21828;BME280;11076;47.942;11.804;2023-02-19T23:53:24;95309.34;;;5.87;98.07
21828;BME280;11076;47.942;11.804;2023-02-19T23:58:26;95315.81;;;5.84;97.77
